Time;durP1;ratioP1;P1;durP2;ratioP2;P2;SDS_P1;SDS_P2;PMS_P1;PMS_P2;Temp;Humidity;BMP_temperature;BMP_pressure;BME280_temperature;BME280_humidity;BME280_pressure;Samples;Min_cycle;Max_cycle;Signal;HPM_P1;HPM_P2
2022/07/23 00:01:21;;;;;;;8.00;4.05;;;13.90;99.90;;;;;;5012496;28;20050;-67
2022/07/23 00:03:47;;;;;;;9.48;4.57;;;13.90;99.90;;;;;;4995285;28;20060;-68
2022/07/23 00:06:13;;;;;;;9.32;4.55;;;14.00;99.90;;;;;;5011591;28;20043;-68
2022/07/23 00:08:38;;;;;;;9.60;4.50;;;14.00;99.90;;;;;;5011129;28;20039;-66
2022/07/23 00:11:04;;;;;;;8.35;4.05;;;14.00;99.90;;;;;;5022185;28;20042;-67
2022/07/23 00:13:30;;;;;;;9.70;3.97;;;14.10;99.90;;;;;;5032366;28;20348;-67
2022/07/23 00:15:56;;;;;;;8.02;4.30;;;14.00;99.90;;;;;;5016505;28;20046;-67
2022/07/23 00:18:22;;;;;;;10.40;4.57;;;14.00;99.90;;;;;;5000113;28;20082;-67
2022/07/23 00:20:48;;;;;;;10.07;3.95;;;14.00;99.90;;;;;;5004757;28;20056;-67
2022/07/23 00:23:13;;;;;;;6.32;3.63;;;14.00;99.90;;;;;;4997971;28;20396;-67
2022/07/23 00:25:40;;;;;;;9.20;4.13;;;14.10;99.90;;;;;;5016210;28;20078;-67
2022/07/23 00:28:06;;;;;;;8.55;4.25;;;14.00;99.90;;;;;;5022232;28;20190;-67
2022/07/23 00:30:32;;;;;;;8.82;4.10;;;14.00;99.90;;;;;;5018863;28;20026;-67
2022/07/23 00:33:04;;;;;;;8.02;4.28;;;14.00;99.90;;;;;;5035654;28;20045;-67
2022/07/23 00:35:32;;;;;;;8.25;4.10;;;14.00;99.90;;;;;;5025523;28;20736;-67
2022/07/23 00:37:59;;;;;;;10.30;4.28;;;14.00;99.90;;;;;;5023457;28;20050;-67
2022/07/23 00:40:26;;;;;;;8.88;4.03;;;13.90;99.90;;;;;;5023738;28;20034;-67
2022/07/23 00:42:51;;;;;;;8.98;4.65;;;14.10;99.90;;;;;;5031054;28;20050;-67
2022/07/23 00:45:18;;;;;;;7.90;4.03;;;13.90;99.90;;;;;;5019393;28;20064;-67
2022/07/23 00:47:43;;;;;;;8.13;4.57;;;13.90;99.90;;;;;;5030035;28;20061;-67
2022/07/23 00:50:10;;;;;;;9.30;4.63;;;13.90;99.90;;;;;;5019943;28;20051;-67
2022/07/23 00:52:37;;;;;;;8.55;4.07;;;13.80;99.90;;;;;;5007310;28;20046;-67
2022/07/23 00:55:05;;;;;;;8.10;3.70;;;13.70;99.90;;;;;;5021583;28;20753;-67
2022/07/23 00:57:31;;;;;;;11.95;4.57;;;13.70;99.90;;;;;;5026142;28;20038;-68
2022/07/23 00:59:57;;;;;;;8.63;4.43;;;13.60;99.90;;;;;;5018042;28;20096;-67
2022/07/23 01:02:27;;;;;;;7.78;4.20;;;13.50;99.90;;;;;;5023848;28;20065;-68
2022/07/23 01:04:53;;;;;;;8.57;4.15;;;13.50;99.90;;;;;;5020884;28;20081;-68
2022/07/23 01:07:20;;;;;;;6.80;4.00;;;13.40;99.90;;;;;;5023070;28;20524;-68
2022/07/23 01:09:46;;;;;;;7.28;3.90;;;13.40;99.90;;;;;;5039361;28;20046;-68
2022/07/23 01:12:12;;;;;;;7.35;4.03;;;13.30;99.90;;;;;;5026608;28;20036;-67
2022/07/23 01:14:38;;;;;;;7.20;3.90;;;13.30;99.90;;;;;;5022012;28;20039;-68
2022/07/23 01:17:04;;;;;;;8.65;4.15;;;13.10;99.90;;;;;;5024192;28;20068;-68
2022/07/23 01:19:30;;;;;;;8.90;3.70;;;13.20;99.90;;;;;;5020211;28;20134;-67
2022/07/23 01:21:58;;;;;;;10.98;4.30;;;13.10;99.90;;;;;;5018876;28;20497;-67
2022/07/23 01:24:24;;;;;;;8.52;4.03;;;13.00;99.90;;;;;;5024453;28;20053;-67
2022/07/23 01:26:50;;;;;;;8.63;3.95;;;13.00;99.90;;;;;;5021048;28;20394;-67
2022/07/23 01:29:16;;;;;;;8.43;3.95;;;12.90;99.90;;;;;;5020842;28;20046;-67
2022/07/23 01:31:43;;;;;;;8.70;3.90;;;12.90;99.90;;;;;;5035929;28;20151;-68
2022/07/23 01:34:09;;;;;;;7.65;3.85;;;12.80;99.90;;;;;;5021990;28;20449;-68
2022/07/23 01:36:36;;;;;;;9.50;4.65;;;12.80;99.90;;;;;;5018661;28;20449;-68
2022/07/23 01:39:03;;;;;;;7.38;3.58;;;12.70;99.90;;;;;;5021684;28;20040;-67
2022/07/23 01:41:29;;;;;;;8.18;4.20;;;12.70;99.90;;;;;;5026909;28;20043;-68
2022/07/23 01:43:55;;;;;;;8.18;3.72;;;12.70;99.90;;;;;;5020446;28;20514;-68
2022/07/23 01:46:20;;;;;;;10.48;4.20;;;12.70;99.90;;;;;;5023933;28;20050;-68
2022/07/23 01:48:46;;;;;;;9.25;4.20;;;12.60;99.90;;;;;;5019433;28;20070;-68
2022/07/23 01:51:12;;;;;;;7.05;3.88;;;12.60;99.90;;;;;;5020585;28;20108;-68
2022/07/23 01:53:38;;;;;;;8.55;4.13;;;12.60;99.90;;;;;;5022072;28;20803;-67
2022/07/23 01:56:04;;;;;;;9.75;4.90;;;12.60;99.90;;;;;;5009135;28;20040;-68
2022/07/23 01:58:30;;;;;;;10.63;4.75;;;12.60;99.90;;;;;;5028279;28;20044;-68
2022/07/23 02:00:55;;;;;;;10.30;5.90;;;12.50;99.90;;;;;;5018036;28;20063;-68
2022/07/23 02:03:22;;;;;;;10.02;5.05;;;12.50;99.90;;;;;;5000556;28;20039;-67
2022/07/23 02:05:48;;;;;;;13.70;5.40;;;12.50;99.90;;;;;;5026320;28;20076;-67
2022/07/23 02:08:14;;;;;;;8.35;5.07;;;12.50;99.90;;;;;;5026626;28;20055;-67
2022/07/23 02:10:40;;;;;;;12.40;5.88;;;12.60;99.90;;;;;;5030226;28;20398;-68
2022/07/23 02:13:06;;;;;;;9.80;5.45;;;12.40;99.90;;;;;;5031265;28;20044;-68
2022/07/23 02:15:32;;;;;;;10.88;5.93;;;12.40;99.90;;;;;;5023475;28;20395;-67
2022/07/23 02:17:57;;;;;;;11.13;5.70;;;12.40;99.90;;;;;;5018323;28;20058;-67
2022/07/23 02:20:24;;;;;;;10.48;5.75;;;12.40;99.90;;;;;;5026804;28;20062;-68
2022/07/23 02:22:50;;;;;;;10.10;5.75;;;12.40;99.90;;;;;;5031663;28;20049;-67
2022/07/23 02:25:16;;;;;;;8.13;5.30;;;12.40;99.90;;;;;;5027542;28;20040;-68
2022/07/23 02:27:42;;;;;;;11.38;6.07;;;12.30;99.90;;;;;;5031916;28;20044;-68
2022/07/23 02:30:08;;;;;;;11.60;5.88;;;12.30;99.90;;;;;;5027987;28;20055;-67
2022/07/23 02:32:35;;;;;;;10.07;6.07;;;12.30;99.90;;;;;;5027309;28;20044;-68
2022/07/23 02:35:01;;;;;;;11.70;6.85;;;12.40;99.90;;;;;;5026855;28;20054;-68
2022/07/23 02:37:27;;;;;;;9.65;5.57;;;12.40;99.90;;;;;;5032274;28;20050;-67
2022/07/23 02:39:53;;;;;;;9.10;5.47;;;12.30;99.90;;;;;;5021259;28;21427;-68
2022/07/23 02:42:19;;;;;;;9.55;5.63;;;12.30;99.90;;;;;;5027704;28;20104;-67
2022/07/23 02:44:45;;;;;;;10.15;5.68;;;12.30;99.90;;;;;;5005595;28;20054;-68
2022/07/23 02:47:10;;;;;;;10.88;5.85;;;12.40;99.90;;;;;;5025221;28;20038;-68
2022/07/23 02:49:36;;;;;;;8.48;5.50;;;12.20;99.90;;;;;;5031102;28;20040;-68
2022/07/23 02:52:02;;;;;;;10.57;6.00;;;12.40;99.90;;;;;;5024335;28;20061;-68
2022/07/23 02:54:28;;;;;;;10.45;6.00;;;12.20;99.90;;;;;;5003395;28;20085;-68
2022/07/23 02:56:53;;;;;;;10.80;5.75;;;12.20;99.90;;;;;;5019962;28;20497;-68
2022/07/23 02:59:19;;;;;;;9.48;5.80;;;12.20;99.90;;;;;;5027542;28;20062;-68
2022/07/23 03:01:45;;;;;;;11.25;6.72;;;12.10;99.90;;;;;;5027577;28;20086;-68
2022/07/23 03:04:11;;;;;;;8.43;5.70;;;12.10;99.90;;;;;;5032787;28;20043;-68
2022/07/23 03:06:37;;;;;;;8.55;5.47;;;12.00;99.90;;;;;;5041200;28;20815;-68
2022/07/23 03:09:04;;;;;;;9.13;5.40;;;11.90;99.90;;;;;;5024470;28;20044;-68
2022/07/23 03:11:30;;;;;;;8.85;5.40;;;11.90;99.90;;;;;;5017989;28;20038;-68
2022/07/23 03:13:56;;;;;;;8.75;5.90;;;11.90;99.90;;;;;;5021611;28;20515;-68
2022/07/23 03:16:21;;;;;;;10.18;5.55;;;11.90;99.90;;;;;;5020318;28;20051;-68
2022/07/23 03:18:47;;;;;;;9.35;5.82;;;11.80;99.90;;;;;;5027024;28;20055;-68
2022/07/23 03:21:13;;;;;;;9.90;5.28;;;11.80;99.90;;;;;;5022070;28;20115;-68
2022/07/23 03:23:38;;;;;;;14.65;5.30;;;11.70;99.90;;;;;;5029833;28;20036;-68
2022/07/23 03:26:05;;;;;;;9.90;5.45;;;11.70;99.90;;;;;;5005849;28;20067;-68
2022/07/23 03:28:30;;;;;;;9.63;5.70;;;11.70;99.90;;;;;;5020706;28;20704;-68
2022/07/23 03:30:56;;;;;;;11.80;5.82;;;11.70;99.90;;;;;;5026720;28;20081;-68
2022/07/23 03:33:23;;;;;;;14.80;6.20;;;11.70;99.90;;;;;;5026011;28;20046;-67
2022/07/23 03:35:49;;;;;;;9.40;5.78;;;11.80;99.90;;;;;;5004271;28;20066;-68
2022/07/23 03:38:16;;;;;;;7.82;4.82;;;11.80;99.90;;;;;;5015015;28;20137;-69
2022/07/23 03:40:41;;;;;;;11.15;5.40;;;11.80;99.90;;;;;;5041979;28;20046;-68
2022/07/23 03:43:07;;;;;;;9.55;5.68;;;11.90;99.90;;;;;;5029020;28;20050;-68
2022/07/23 03:45:33;;;;;;;8.40;5.50;;;11.90;99.90;;;;;;5021273;28;20121;-68
2022/07/23 03:47:59;;;;;;;8.88;5.40;;;12.00;99.90;;;;;;5021809;28;20057;-69
2022/07/23 03:50:25;;;;;;;10.70;5.05;;;12.10;99.90;;;;;;5007970;28;20039;-68
2022/07/23 03:52:51;;;;;;;11.60;5.97;;;12.10;99.90;;;;;;4999091;28;20050;-68
2022/07/23 03:55:18;;;;;;;9.25;5.35;;;12.20;99.90;;;;;;4984462;28;20039;-68
2022/07/23 03:57:43;;;;;;;11.00;5.35;;;12.80;99.90;;;;;;4984360;28;20075;-69
2022/07/23 04:00:10;;;;;;;9.27;4.93;;;12.20;99.90;;;;;;4983471;28;21124;-69
2022/07/23 04:02:37;;;;;;;11.13;5.18;;;12.20;99.90;;;;;;4983543;28;20062;-68
2022/07/23 04:05:04;;;;;;;9.77;5.13;;;12.30;99.90;;;;;;4984270;28;20046;-69
2022/07/23 04:07:30;;;;;;;12.90;6.20;;;12.30;99.90;;;;;;4984502;28;20064;-68
2022/07/23 04:09:56;;;;;;;10.55;5.55;;;12.30;99.90;;;;;;4983478;28;20045;-68
2022/07/23 04:12:21;;;;;;;8.95;5.28;;;12.30;99.90;;;;;;4985432;28;20495;-68
2022/07/23 04:14:47;;;;;;;9.93;5.63;;;12.30;99.90;;;;;;4986342;28;20429;-69
2022/07/23 04:17:13;;;;;;;10.65;5.15;;;12.40;99.90;;;;;;4988593;28;20058;-69
2022/07/23 04:19:43;;;;;;;10.02;5.50;;;12.40;99.90;;;;;;4986773;28;20510;-68
2022/07/23 04:22:12;;;;;;;8.73;5.20;;;12.40;99.90;;;;;;4989941;28;20486;-69
2022/07/23 04:24:38;;;;;;;8.93;5.35;;;12.50;99.90;;;;;;4987155;28;20038;-69
2022/07/23 04:27:05;;;;;;;10.10;5.20;;;12.50;99.90;;;;;;4987713;28;20123;-68
2022/07/23 04:29:30;;;;;;;11.32;5.03;;;12.60;99.90;;;;;;4988542;28;20127;-68
2022/07/23 04:31:56;;;;;;;12.98;5.20;;;12.60;99.90;;;;;;4989942;28;20050;-69
2022/07/23 04:34:22;;;;;;;9.18;5.57;;;12.70;99.90;;;;;;4996777;28;20521;-67
2022/07/23 04:36:48;;;;;;;13.52;5.25;;;12.70;99.90;;;;;;4974589;28;20046;-68
2022/07/23 04:39:14;;;;;;;13.75;5.25;;;12.90;99.90;;;;;;4986294;28;20100;-69
2022/07/23 04:41:40;;;;;;;9.63;5.38;;;13.00;99.90;;;;;;4991650;28;20039;-69
2022/07/23 04:44:05;;;;;;;11.73;5.18;;;13.10;99.90;;;;;;4986025;28;20058;-69
2022/07/23 04:46:31;;;;;;;8.50;4.93;;;13.20;99.90;;;;;;4993338;28;20053;-69
2022/07/23 04:48:57;;;;;;;9.38;5.45;;;13.40;99.90;;;;;;4995074;28;20081;-69
2022/07/23 04:51:23;;;;;;;11.40;5.20;;;13.40;99.90;;;;;;4986197;28;20442;-69
2022/07/23 04:53:49;;;;;;;9.38;4.53;;;13.50;99.90;;;;;;5000669;28;20043;-70
2022/07/23 04:56:15;;;;;;;12.55;5.10;;;13.50;99.90;;;;;;5024654;28;20073;-69
2022/07/23 04:58:41;;;;;;;10.68;4.75;;;13.70;99.90;;;;;;5019971;28;20123;-69
2022/07/23 05:01:07;;;;;;;9.10;4.47;;;13.70;99.90;;;;;;5031746;28;20411;-69
2022/07/23 05:03:32;;;;;;;9.02;4.68;;;13.70;99.90;;;;;;5034718;28;20507;-69
2022/07/23 05:05:58;;;;;;;11.63;4.53;;;13.80;99.90;;;;;;5024787;28;20056;-69
2022/07/23 05:08:24;;;;;;;7.32;4.13;;;13.70;99.90;;;;;;5030141;28;20086;-70
2022/07/23 05:10:49;;;;;;;9.30;3.95;;;13.80;99.90;;;;;;5019692;28;20038;-69
2022/07/23 05:13:16;;;;;;;7.50;3.88;;;13.70;99.90;;;;;;4993989;28;20063;-69
2022/07/23 05:15:42;;;;;;;10.63;4.03;;;13.80;99.90;;;;;;5012298;28;20038;-69
2022/07/23 05:18:08;;;;;;;9.95;3.70;;;13.70;99.90;;;;;;4996352;28;20054;-70
2022/07/23 05:20:34;;;;;;;7.88;4.00;;;13.70;99.90;;;;;;5030704;28;20510;-70
2022/07/23 05:22:59;;;;;;;9.07;3.70;;;14.60;99.90;;;;;;5019474;28;20043;-69
2022/07/23 05:25:25;;;;;;;6.88;3.85;;;16.00;99.90;;;;;;5009191;28;20051;-70
2022/07/23 05:27:51;;;;;;;7.68;3.60;;;17.30;99.90;;;;;;5025084;28;20054;-70
2022/07/23 05:30:17;;;;;;;8.90;3.50;;;17.30;99.90;;;;;;5016436;28;20394;-70
2022/07/23 05:32:42;;;;;;;7.50;3.45;;;17.00;99.90;;;;;;4997585;28;20058;-69
2022/07/23 05:35:08;;;;;;;12.20;3.40;;;16.70;99.90;;;;;;5019110;28;20050;-69
2022/07/23 05:37:34;;;;;;;7.13;3.15;;;16.40;99.90;;;;;;5021193;28;20053;-69
2022/07/23 05:40:07;;;;;;;7.82;3.05;;;16.20;99.90;;;;;;5026597;28;20054;-69
2022/07/23 05:42:33;;;;;;;6.38;2.75;;;16.00;99.90;;;;;;5020940;28;20043;-69
2022/07/23 05:44:59;;;;;;;7.53;3.00;;;15.80;99.90;;;;;;5026604;28;20403;-69
2022/07/23 05:47:25;;;;;;;8.15;3.10;;;15.70;99.90;;;;;;5030713;28;20047;-69
2022/07/23 05:49:51;;;;;;;7.38;3.20;;;15.50;99.90;;;;;;5036200;28;20058;-69
2022/07/23 05:52:16;;;;;;;6.90;2.92;;;15.50;99.90;;;;;;5005499;28;20076;-68
2022/07/23 05:54:42;;;;;;;8.07;2.88;;;15.40;99.90;;;;;;5017608;28;20107;-68
2022/07/23 05:57:08;;;;;;;11.00;2.60;;;15.50;99.90;;;;;;5007691;28;20137;-69
2022/07/23 05:59:34;;;;;;;8.07;2.83;;;15.50;99.90;;;;;;5022064;28;20034;-69
2022/07/23 06:01:59;;;;;;;5.80;2.60;;;15.50;99.90;;;;;;5017764;28;20561;-69
2022/07/23 06:04:25;;;;;;;8.07;2.42;;;15.50;99.90;;;;;;5023705;28;20031;-69
2022/07/23 06:06:51;;;;;;;7.07;2.60;;;15.60;99.90;;;;;;5006730;28;20042;-69
2022/07/23 06:09:17;;;;;;;6.57;2.30;;;15.60;99.90;;;;;;4996163;28;20078;-68
2022/07/23 06:11:42;;;;;;;6.18;2.63;;;15.70;99.90;;;;;;4998525;28;20117;-67
2022/07/23 06:14:08;;;;;;;4.95;2.33;;;15.80;99.90;;;;;;5022395;28;20095;-67
2022/07/23 06:16:34;;;;;;;7.03;2.40;;;15.80;99.90;;;;;;5016748;28;20133;-69
2022/07/23 06:18:59;;;;;;;9.00;2.40;;;15.90;99.90;;;;;;4985370;28;20092;-68
2022/07/23 06:21:25;;;;;;;4.40;2.13;;;16.00;99.90;;;;;;4985926;28;20123;-69
2022/07/23 06:23:51;;;;;;;6.88;2.30;;;16.20;99.90;;;;;;4985374;28;20046;-69
2022/07/23 06:26:16;;;;;;;5.28;2.17;;;16.30;99.90;;;;;;4986896;28;20049;-68
2022/07/23 06:28:42;;;;;;;4.35;1.88;;;16.40;99.90;;;;;;4985386;28;20454;-70
2022/07/23 06:31:08;;;;;;;4.07;1.83;;;16.50;99.90;;;;;;4984225;28;20121;-69
2022/07/23 06:33:33;;;;;;;3.78;1.70;;;16.60;99.90;;;;;;5001385;28;20050;-69
2022/07/23 06:35:59;;;;;;;4.70;1.40;;;16.70;99.90;;;;;;5000648;28;20197;-68
2022/07/23 06:38:25;;;;;;;4.38;1.23;;;16.90;99.90;;;;;;4985795;28;20053;-69
2022/07/23 06:40:51;;;;;;;4.97;1.17;;;17.60;99.90;;;;;;4985567;28;20481;-68
2022/07/23 06:43:17;;;;;;;6.00;1.20;;;19.40;99.90;;;;;;4969382;28;20061;-68
2022/07/23 06:45:42;;;;;;;5.22;1.00;;;19.40;99.90;;;;;;4969990;28;20039;-69
2022/07/23 06:48:08;;;;;;;5.10;0.80;;;18.90;99.90;;;;;;4970181;28;20414;-68
2022/07/23 06:50:34;;;;;;;2.08;0.73;;;18.80;99.90;;;;;;4986836;28;20167;-69
2022/07/23 06:53:00;;;;;;;3.80;0.90;;;18.70;99.90;;;;;;4986241;28;20125;-68
2022/07/23 06:55:26;;;;;;;2.60;0.65;;;18.70;99.90;;;;;;4985329;28;20059;-68
2022/07/23 06:57:51;;;;;;;3.72;0.70;;;18.60;99.90;;;;;;4985242;28;20038;-68
2022/07/23 07:00:17;;;;;;;2.20;0.52;;;18.60;99.90;;;;;;4986742;28;20077;-68
2022/07/23 07:02:43;;;;;;;1.65;0.70;;;18.50;99.90;;;;;;4985430;28;20042;-68
2022/07/23 07:05:08;;;;;;;3.42;0.52;;;18.40;99.90;;;;;;4986638;28;20103;-67
2022/07/23 07:07:34;;;;;;;2.50;0.80;;;18.30;99.90;;;;;;4986306;28;20119;-68
2022/07/23 07:10:01;;;;;;;3.75;0.70;;;18.40;99.90;;;;;;4986274;28;20031;-67
2022/07/23 07:12:27;;;;;;;4.20;0.50;;;18.40;99.90;;;;;;4987081;28;20113;-67
2022/07/23 07:14:53;;;;;;;2.78;0.70;;;18.30;99.90;;;;;;4986018;28;20109;-68
2022/07/23 07:17:19;;;;;;;2.90;0.70;;;18.20;99.90;;;;;;4985804;28;20058;-67
2022/07/23 07:19:45;;;;;;;2.40;0.60;;;18.00;99.90;;;;;;4987068;28;20121;-67
2022/07/23 07:22:10;;;;;;;2.85;0.85;;;18.00;99.90;;;;;;5002139;28;20612;-67
2022/07/23 07:24:36;;;;;;;1.38;0.50;;;18.10;99.90;;;;;;4986029;28;20129;-67
2022/07/23 07:27:02;;;;;;;2.05;0.52;;;18.20;99.90;;;;;;4986300;28;20453;-68
2022/07/23 07:29:28;;;;;;;2.40;0.60;;;18.50;99.90;;;;;;4986152;28;20045;-67
2022/07/23 07:31:54;;;;;;;1.35;0.50;;;18.80;99.90;;;;;;4985938;28;20043;-68
2022/07/23 07:34:19;;;;;;;1.42;0.50;;;19.30;99.90;;;;;;4970183;28;20526;-69
2022/07/23 07:36:45;;;;;;;0.82;0.50;;;19.90;99.90;;;;;;4985646;28;20070;-66
2022/07/23 07:39:11;;;;;;;2.97;0.52;;;20.50;99.90;;;;;;5048363;28;20050;-67
2022/07/23 07:41:37;;;;;;;2.65;0.57;;;21.30;99.90;;;;;;4986705;28;20034;-68
2022/07/23 07:44:02;;;;;;;2.38;0.60;;;21.20;99.90;;;;;;4985698;28;20537;-68
2022/07/23 07:46:28;;;;;;;1.98;0.65;;;21.10;99.90;;;;;;4985710;28;20042;-68
2022/07/23 07:48:54;;;;;;;2.03;0.70;;;20.90;99.90;;;;;;5001647;28;20426;-68
2022/07/23 07:51:19;;;;;;;1.88;0.50;;;20.70;99.90;;;;;;4985712;28;20045;-69
2022/07/23 07:53:45;;;;;;;1.73;0.63;;;20.50;99.90;;;;;;4982451;28;20050;-68
2022/07/23 07:56:11;;;;;;;1.55;0.57;;;20.70;99.90;;;;;;4986720;28;20050;-68
2022/07/23 07:58:36;;;;;;;2.20;0.50;;;21.20;99.90;;;;;;4985596;28;20046;-67
2022/07/23 08:01:02;;;;;;;2.10;0.55;;;21.50;99.90;;;;;;4983617;28;20039;-68
2022/07/23 08:03:28;;;;;;;3.15;0.70;;;21.60;99.90;;;;;;4985287;28;20074;-68
2022/07/23 08:05:54;;;;;;;5.30;0.82;;;21.70;99.90;;;;;;4984557;28;20121;-68
2022/07/23 08:08:20;;;;;;;2.00;0.68;;;21.60;99.90;;;;;;4968622;28;20191;-67
2022/07/23 08:10:46;;;;;;;4.57;0.80;;;21.40;99.90;;;;;;4985941;28;20054;-68
2022/07/23 08:13:16;;;;;;;1.75;0.50;;;21.20;99.90;;;;;;4984083;28;20130;-69
2022/07/23 08:15:43;;;;;;;2.47;0.70;;;21.00;99.90;;;;;;4982130;28;20046;-68
2022/07/23 08:18:09;;;;;;;2.75;0.60;;;20.80;99.90;;;;;;4985804;28;20073;-69
2022/07/23 08:20:36;;;;;;;1.50;0.57;;;20.80;99.90;;;;;;4985176;28;20435;-69
2022/07/23 08:23:07;;;;;;;3.38;0.60;;;20.70;99.90;;;;;;4985703;28;20042;-68
2022/07/23 08:25:37;;;;;;;;;;;20.60;99.90;;;;;;4986507;28;20046;-68
2022/07/23 08:28:05;;;;;;;2.42;0.70;;;20.70;99.90;;;;;;4983878;28;19921;-68
2022/07/23 08:30:31;;;;;;;1.88;0.60;;;20.80;99.90;;;;;;4984652;28;20118;-69
2022/07/23 08:33:02;;;;;;;2.72;0.77;;;21.00;99.90;;;;;;4967895;28;20087;-68
2022/07/23 08:35:28;;;;;;;;;;;21.10;99.90;;;;;;4984848;28;20049;-68
2022/07/23 08:37:54;;;;;;;4.38;0.60;;;21.50;99.90;;;;;;4984498;28;19921;-69
2022/07/23 08:40:21;;;;;;;2.58;0.52;;;21.70;99.90;;;;;;4985960;28;20043;-68
2022/07/23 08:42:51;;;;;;;3.05;0.80;;;21.60;99.90;;;;;;4984832;28;20038;-68
2022/07/23 08:45:19;;;;;;;2.85;0.60;;;21.40;99.90;;;;;;4985802;28;20047;-68
2022/07/23 08:47:44;;;;;;;1.95;0.57;;;21.20;99.90;;;;;;4984444;28;20038;-68
2022/07/23 08:50:10;;;;;;;2.15;0.68;;;21.00;99.90;;;;;;4985522;28;20763;-68
2022/07/23 08:52:38;;;;;;;3.40;0.70;;;20.90;99.90;;;;;;4983863;28;20114;-68
2022/07/23 08:55:04;;;;;;;4.57;0.80;;;20.70;99.90;;;;;;4984178;28;20117;-69
2022/07/23 08:57:30;;;;;;;4.82;0.75;;;20.50;99.90;;;;;;4984045;28;20100;-69
2022/07/23 08:59:57;;;;;;;4.28;0.65;;;20.40;99.90;;;;;;4971076;28;20042;-69
2022/07/23 09:02:22;;;;;;;4.65;0.70;;;20.20;99.90;;;;;;5002916;28;20049;-69
2022/07/23 09:04:48;;;;;;;2.20;0.63;;;20.10;99.90;;;;;;4987468;28;20470;-69
2022/07/23 09:07:14;;;;;;;4.30;0.70;;;20.00;99.90;;;;;;4971653;28;20402;-68
2022/07/23 09:09:40;;;;;;;4.32;0.90;;;19.90;99.90;;;;;;4987107;28;20034;-68
2022/07/23 09:12:08;;;;;;;5.60;0.80;;;19.80;99.90;;;;;;4996712;28;20487;-69
2022/07/23 09:14:48;;;;;;;2.97;0.70;;;19.70;99.90;;;;;;4987236;28;20435;-69
2022/07/23 09:17:16;;;;;;;4.18;0.80;;;19.70;99.90;;;;;;4986642;28;20407;-68
2022/07/23 09:19:42;;;;;;;1.70;0.70;;;19.60;99.90;;;;;;4989248;28;20046;-69
2022/07/23 09:22:17;;;;;;;4.70;0.82;;;19.60;99.90;;;;;;4988659;28;20125;-69
2022/07/23 09:25:13;;;;;;;2.72;0.80;;;19.60;99.90;;;;;;5006128;28;20050;-69
2022/07/23 09:27:45;;;;;;;4.50;0.80;;;19.70;99.90;;;;;;4971430;28;20039;-68
2022/07/23 09:30:11;;;;;;;3.40;0.70;;;19.80;99.90;;;;;;4989346;28;20061;-69
2022/07/23 09:32:38;;;;;;;2.33;0.70;;;20.00;99.90;;;;;;5003045;28;20070;-69
2022/07/23 09:35:04;;;;;;;1.42;0.55;;;20.10;99.90;;;;;;4971447;28;20078;-69
2022/07/23 09:37:30;;;;;;;3.97;0.80;;;20.30;99.90;;;;;;4987668;28;20110;-69
2022/07/23 09:40:05;;;;;;;2.92;0.80;;;20.50;99.90;;;;;;5003356;28;20482;-69
2022/07/23 09:42:31;;;;;;;2.25;0.68;;;20.60;99.90;;;;;;4987945;28;20081;-68
2022/07/23 09:44:58;;;;;;;2.00;0.70;;;20.70;99.90;;;;;;5001938;28;20081;-69
2022/07/23 09:47:26;;;;;;;1.48;0.47;;;20.70;99.90;;;;;;5003474;28;20396;-69
2022/07/23 09:50:05;;;;;;;8.20;1.00;;;20.70;99.90;;;;;;4986747;28;20376;-68
2022/07/23 09:52:50;;;;;;;4.07;0.80;;;20.60;99.90;;;;;;4986972;28;20542;-69
2022/07/23 09:55:17;;;;;;;1.48;0.52;;;20.50;99.90;;;;;;4986806;28;20050;-69
2022/07/23 09:57:53;;;;;;;4.35;0.70;;;20.50;99.90;;;;;;4987919;28;20044;-69
2022/07/23 10:00:19;;;;;;;9.18;1.25;;;20.40;99.90;;;;;;4986276;28;20117;-68
2022/07/23 10:02:46;;;;;;;6.30;1.02;;;20.30;99.90;;;;;;5016253;28;20039;-69
2022/07/23 10:05:12;;;;;;;4.97;0.75;;;20.30;99.90;;;;;;4986722;28;20038;-68
2022/07/23 10:07:39;;;;;;;4.30;0.80;;;20.40;99.90;;;;;;4986251;28;20034;-68
2022/07/23 10:10:06;;;;;;;3.03;0.75;;;20.40;99.90;;;;;;5001741;28;20038;-68
2022/07/23 10:15:01;;;;;;;2.38;0.93;;;20.50;99.90;;;;;;4985502;28;20510;-68
2022/07/23 10:17:28;;;;;;;7.22;0.80;;;20.60;99.90;;;;;;4987505;28;20053;-68
2022/07/23 10:19:54;;;;;;;1.85;0.60;;;20.60;99.90;;;;;;5071390;28;20063;-68
2022/07/23 10:22:26;;;;;;;4.32;0.80;;;20.90;99.90;;;;;;5002858;28;20046;-68
2022/07/23 10:25:11;;;;;;;2.58;0.70;;;20.80;99.90;;;;;;4986879;28;20429;-69
2022/07/23 10:27:52;;;;;;;4.30;0.70;;;20.70;99.90;;;;;;4987162;28;20053;-68
2022/07/23 10:30:32;;;;;;;4.43;0.65;;;20.50;99.90;;;;;;4986644;28;20046;-68
2022/07/23 10:33:29;;;;;;;3.30;0.80;;;20.30;99.90;;;;;;4986997;28;20046;-68
2022/07/23 10:36:16;;;;;;;3.25;0.68;;;20.20;99.90;;;;;;5016436;28;20042;-69
2022/07/23 10:38:51;;;;;;;5.03;1.00;;;20.20;99.90;;;;;;5018626;28;20041;-68
2022/07/23 10:41:34;;;;;;;2.72;0.80;;;20.10;99.90;;;;;;5018163;28;20129;-69
2022/07/23 10:44:06;;;;;;;4.50;0.85;;;20.20;99.90;;;;;;4985966;28;20046;-69
2022/07/23 10:49:28;;;;;;;3.72;0.73;;;20.30;99.90;;;;;;4984689;28;20057;-69
2022/07/23 10:52:23;;;;;;;9.63;1.10;;;20.30;99.90;;;;;;4986259;28;20050;-68
2022/07/23 10:55:16;;;;;;;4.07;1.00;;;20.20;99.90;;;;;;4985050;28;20046;-68
2022/07/23 10:57:50;;;;;;;2.40;0.60;;;20.10;99.90;;;;;;4986248;28;20172;-68
2022/07/23 11:00:21;;;;;;;4.13;0.90;;;20.00;99.90;;;;;;4985387;28;20553;-68
2022/07/23 11:02:49;;;;;;;2.58;0.85;;;19.90;99.90;;;;;;5015903;28;20042;-69
2022/07/23 11:05:17;;;;;;;3.78;0.90;;;19.90;99.90;;;;;;4985881;28;20042;-68
2022/07/23 11:08:05;;;;;;;2.95;0.98;;;20.00;99.90;;;;;;4987387;28;20039;-69
2022/07/23 11:10:38;;;;;;;5.03;1.08;;;20.10;99.90;;;;;;4984906;28;20053;-69
2022/07/23 11:13:21;;;;;;;3.88;0.90;;;20.30;99.90;;;;;;4985010;28;20043;-69
2022/07/23 11:16:05;;;;;;;3.22;0.80;;;20.40;99.90;;;;;;4987834;28;20046;-68
2022/07/23 11:18:43;;;;;;;3.03;0.90;;;20.50;99.90;;;;;;4987542;28;20050;-69
2022/07/23 11:21:21;;;;;;;4.63;1.00;;;20.60;99.90;;;;;;4987293;28;20050;-69
2022/07/23 11:24:08;;;;;;;2.45;0.70;;;20.70;99.90;;;;;;5001505;28;20050;-69
2022/07/23 11:26:42;;;;;;;4.18;1.00;;;20.90;99.90;;;;;;4986567;28;20144;-70
2022/07/23 11:31:53;;;;;;;4.93;1.05;;;21.10;99.90;;;;;;4999377;28;20164;-69
2022/07/23 11:34:42;;;;;;;4.72;1.00;;;21.10;99.90;;;;;;4987100;28;20070;-69
2022/07/23 11:37:11;;;;;;;4.07;1.23;;;21.40;99.90;;;;;;4999940;28;20050;-68
2022/07/23 11:39:37;;;;;;;3.17;1.02;;;21.90;99.90;;;;;;4985735;28;20457;-68
2022/07/23 11:42:06;;;;;;;6.28;1.15;;;22.50;99.90;;;;;;4986439;28;20042;-69
2022/07/23 11:44:38;;;;;;;4.38;1.13;;;23.00;99.90;;;;;;4984698;28;20104;-67
2022/07/23 11:47:10;;;;;;;5.18;1.10;;;23.50;99.90;;;;;;4985308;28;20046;-68
2022/07/23 11:49:36;;;;;;;4.10;1.30;;;23.60;99.90;;;;;;4984741;28;20050;-68
2022/07/23 11:52:15;;;;;;;4.28;0.90;;;23.80;99.90;;;;;;4985312;28;20034;-69
2022/07/23 11:54:49;;;;;;;5.50;1.10;;;23.70;99.90;;;;;;4985146;28;20095;-69
2022/07/23 11:57:15;;;;;;;4.95;1.20;;;23.40;99.90;;;;;;4985680;28;20116;-68
2022/07/23 11:59:43;;;;;;;2.63;0.98;;;23.10;99.90;;;;;;5000223;28;20077;-67
2022/07/23 12:02:09;;;;;;;3.55;1.00;;;22.80;99.90;;;;;;4986183;28;20054;-69
2022/07/23 12:04:41;;;;;;;3.33;0.70;;;22.60;99.90;;;;;;4983163;28;20057;-69
2022/07/23 12:07:44;;;;;;;4.93;1.13;;;22.60;99.90;;;;;;4984090;28;20054;-69
2022/07/23 12:10:10;;;;;;;3.50;1.00;;;22.70;99.90;;;;;;5065760;28;20527;-69
2022/07/23 12:12:55;;;;;;;4.57;1.10;;;23.00;99.90;;;;;;4996375;28;20183;-68
2022/07/23 12:15:30;;;;;;;5.45;1.20;;;23.20;99.90;;;;;;4986636;28;20050;-67
2022/07/23 12:17:56;;;;;;;4.03;1.13;;;23.10;99.90;;;;;;4985776;28;20489;-69
2022/07/23 12:20:24;;;;;;;3.83;1.40;;;23.00;99.90;;;;;;4979744;28;20165;-68
2022/07/23 12:22:53;;;;;;;3.58;1.20;;;23.20;99.90;;;;;;4981518;28;20648;-68
2022/07/23 12:25:21;;;;;;;4.50;1.40;;;23.30;99.90;;;;;;5013500;28;20046;-68
2022/07/23 12:27:59;;;;;;;3.83;1.00;;;23.40;99.90;;;;;;4982213;28;20498;-68
2022/07/23 12:30:27;;;;;;;3.33;0.90;;;23.70;99.90;;;;;;4965226;28;20054;-66
2022/07/23 12:32:55;;;;;;;4.97;1.10;;;23.80;99.90;;;;;;4981366;28;20050;-68
2022/07/23 12:35:22;;;;;;;3.95;1.00;;;23.80;99.90;;;;;;4984207;28;20834;-69
2022/07/23 12:37:55;;;;;;;2.85;1.05;;;23.90;99.90;;;;;;4969020;28;20092;-68
2022/07/23 12:40:22;;;;;;;4.13;1.13;;;24.00;99.90;;;;;;4983045;28;20141;-68
2022/07/23 12:43:03;;;;;;;3.97;1.02;;;24.00;99.90;;;;;;4984248;28;20487;-69
2022/07/23 12:45:45;;;;;;;3.35;0.85;;;23.70;99.90;;;;;;4986055;28;20046;-69
2022/07/23 12:48:16;;;;;;;4.28;1.05;;;23.60;99.90;;;;;;4980115;28;20049;-69
2022/07/23 12:50:53;;;;;;;2.20;0.80;;;23.60;99.90;;;;;;4993712;28;20061;-67
2022/07/23 12:53:26;;;;;;;2.33;0.80;;;23.60;99.90;;;;;;4983347;28;20495;-69
2022/07/23 12:56:19;;;;;;;3.40;0.90;;;23.50;99.90;;;;;;4983716;28;20034;-68
2022/07/23 12:58:49;;;;;;;3.05;0.88;;;23.30;99.90;;;;;;4992505;28;20078;-69